Time;durP1;ratioP1;P1;durP2;ratioP2;P2;SDS_P1;SDS_P2;PMS_P1;PMS_P2;Temp;Humidity;BMP_temperature;BMP_pressure;BME280_temperature;BME280_humidity;BME280_pressure;Samples;Min_cycle;Max_cycle;Signal;HPM_P1;HPM_P2
2022/01/10 00:02:12;;;;;;;1.30;0.60;;;6.70;47.10;;;;;;6035349;23;20433;-77
2022/01/10 00:04:41;;;;;;;0.60;0.30;;;6.40;47.80;;;;;;6036231;23;20392;-77
2022/01/10 00:07:08;;;;;;;0.50;0.20;;;6.50;49.80;;;;;;6034793;23;20444;-78
2022/01/10 00:09:35;;;;;;;0.70;0.20;;;6.50;49.90;;;;;;6036117;23;20388;-78
2022/01/10 00:12:02;;;;;;;0.90;0.20;;;6.60;50.10;;;;;;6035046;23;20854;-77
2022/01/10 00:14:35;;;;;;;1.65;0.70;;;6.60;49.90;;;;;;6037735;23;20862;-78
2022/01/10 00:17:02;;;;;;;1.20;0.30;;;6.50;48.10;;;;;;6035138;23;20897;-78
2022/01/10 00:19:29;;;;;;;0.32;0.20;;;6.30;49.40;;;;;;6035999;23;20389;-79
2022/01/10 00:21:56;;;;;;;0.30;0.20;;;6.30;50.30;;;;;;6032991;23;20696;-78
2022/01/10 00:24:23;;;;;;;0.80;0.20;;;6.50;50.10;;;;;;6035943;23;20383;-79
2022/01/10 00:26:50;;;;;;;0.77;0.30;;;6.70;49.60;;;;;;6034535;23;20389;-78
2022/01/10 00:29:17;;;;;;;2.00;1.25;;;6.70;49.40;;;;;;6035506;23;20421;-77
2022/01/10 00:31:44;;;;;;;2.42;1.70;;;6.30;47.00;;;;;;6035908;23;20385;-80
2022/01/10 00:34:11;;;;;;;2.63;1.80;;;5.40;47.50;;;;;;6034748;23;20389;-78
2022/01/10 00:36:38;;;;;;;2.08;1.45;;;5.00;48.70;;;;;;6035673;23;20445;-77
2022/01/10 00:39:05;;;;;;;2.38;1.73;;;4.60;49.50;;;;;;6034984;23;20850;-79
2022/01/10 00:41:32;;;;;;;3.63;2.35;;;4.40;51.30;;;;;;6035653;23;20392;-78
2022/01/10 00:44:01;;;;;;;4.30;2.97;;;4.20;50.60;;;;;;6034416;23;20389;-78
2022/01/10 00:46:28;;;;;;;5.95;4.15;;;4.00;52.00;;;;;;6035841;23;20376;-78
2022/01/10 00:48:55;;;;;;;6.88;4.82;;;3.80;53.60;;;;;;6035832;23;20448;-78
2022/01/10 00:51:22;;;;;;;9.70;6.65;;;3.60;55.10;;;;;;6035541;23;20380;-80
2022/01/10 00:53:50;;;;;;;9.10;7.15;;;3.50;55.90;;;;;;6010912;23;20396;-80
2022/01/10 00:56:18;;;;;;;11.93;8.93;;;3.40;57.40;;;;;;6034632;23;20424;-78
2022/01/10 00:58:46;;;;;;;13.48;9.65;;;2.90;59.80;;;;;;6036937;23;20396;-80
2022/01/10 01:01:13;;;;;;;12.13;8.95;;;2.90;60.80;;;;;;6034594;23;20956;-79
2022/01/10 01:03:41;;;;;;;11.38;9.13;;;2.70;60.80;;;;;;6034829;23;20381;-78
2022/01/10 01:06:10;;;;;;;11.82;8.15;;;2.50;60.90;;;;;;6036390;23;20381;-80
2022/01/10 01:08:40;;;;;;;10.15;8.05;;;2.40;61.00;;;;;;6035331;23;20965;-78
2022/01/10 01:13:55;;;;;;;11.48;9.23;;;2.20;61.90;;;;;;6036295;23;20429;-80
2022/01/10 01:17:08;;;;;;;12.10;9.15;;;2.10;62.90;;;;;;6036279;23;20762;-80
2022/01/10 01:24:32;;;;;;;12.52;10.15;;;2.10;63.40;;;;;;6036136;23;20445;-78
2022/01/10 01:27:00;;;;;;;13.93;10.57;;;2.00;63.30;;;;;;6012118;23;20881;-78
2022/01/10 01:29:29;;;;;;;15.85;11.88;;;1.90;64.40;;;;;;6034225;23;20707;-80
2022/01/10 01:31:56;;;;;;;16.65;13.50;;;1.90;65.60;;;;;;6034669;23;20431;-79
2022/01/10 01:34:24;;;;;;;16.60;12.15;;;1.90;66.20;;;;;;6034270;23;20391;-78
2022/01/10 01:36:54;;;;;;;16.30;13.48;;;1.80;66.60;;;;;;6034928;23;20896;-78
2022/01/10 01:39:25;;;;;;;17.75;13.20;;;1.90;66.40;;;;;;6035102;23;20385;-78
2022/01/10 01:42:03;;;;;;;18.67;14.20;;;1.80;66.80;;;;;;6034142;23;20427;-79
2022/01/10 01:44:31;;;;;;;18.60;13.52;;;1.70;66.90;;;;;;6036157;23;20933;-78
2022/01/10 01:46:58;;;;;;;18.10;13.30;;;1.60;67.00;;;;;;6032708;23;20438;-77
2022/01/10 01:49:25;;;;;;;18.23;13.98;;;1.60;67.60;;;;;;6034261;23;20393;-78
2022/01/10 01:51:52;;;;;;;18.13;14.35;;;1.50;67.80;;;;;;6026623;23;20393;-77
2022/01/10 01:54:21;;;;;;;18.95;14.40;;;1.50;68.10;;;;;;6034232;23;20379;-79
2022/01/10 01:56:48;;;;;;;18.80;14.57;;;1.40;68.10;;;;;;6035399;23;20494;-79
2022/01/10 01:59:16;;;;;;;18.73;15.05;;;1.40;68.40;;;;;;6011163;23;20384;-78
2022/01/10 02:01:44;;;;;;;17.90;14.40;;;1.40;68.80;;;;;;6035491;23;20420;-77
2022/01/10 02:04:11;;;;;;;21.27;16.25;;;1.40;69.60;;;;;;6034606;23;20440;-79
2022/01/10 02:06:38;;;;;;;18.35;15.07;;;1.30;70.10;;;;;;6034873;23;20436;-78
2022/01/10 02:09:05;;;;;;;19.27;15.37;;;1.30;69.60;;;;;;6034262;23;20385;-79
2022/01/10 02:11:32;;;;;;;19.65;15.00;;;1.20;69.30;;;;;;6012333;23;20428;-77
2022/01/10 02:14:00;;;;;;;17.42;14.27;;;1.00;69.50;;;;;;6036417;23;20444;-78
2022/01/10 02:16:41;;;;;;;18.38;13.98;;;1.00;69.40;;;;;;6034341;23;20385;-79
2022/01/10 02:19:09;;;;;;;19.23;15.80;;;0.90;69.40;;;;;;6034200;23;20445;-79
2022/01/10 02:21:37;;;;;;;19.37;15.13;;;0.90;69.60;;;;;;6035023;23;20536;-78
2022/01/10 02:24:05;;;;;;;20.92;15.55;;;0.80;69.60;;;;;;6035339;23;20920;-78
2022/01/10 02:26:33;;;;;;;18.65;15.45;;;0.80;69.70;;;;;;6036396;23;20444;-79
2022/01/10 02:29:00;;;;;;;20.02;15.20;;;0.70;70.70;;;;;;6034605;23;20771;-78
2022/01/10 02:31:27;;;;;;;20.33;15.52;;;0.70;70.40;;;;;;6034210;23;20446;-78
2022/01/10 02:33:57;;;;;;;19.88;15.18;;;0.70;70.40;;;;;;6033311;23;20383;-78
2022/01/10 02:36:26;;;;;;;21.60;16.92;;;0.60;71.20;;;;;;6031193;23;20388;-79
2022/01/10 02:39:12;;;;;;;20.90;16.08;;;0.60;72.00;;;;;;6034595;23;20389;-78
2022/01/10 02:41:43;;;;;;;24.98;17.60;;;0.50;71.70;;;;;;6025616;23;20377;-77
2022/01/10 02:44:13;;;;;;;22.40;17.67;;;0.40;72.40;;;;;;6034790;23;20407;-78
2022/01/10 02:46:42;;;;;;;22.17;17.08;;;0.40;72.40;;;;;;6034209;23;20452;-78
2022/01/10 02:49:11;;;;;;;22.58;16.63;;;0.30;73.00;;;;;;6035673;23;20392;-79
2022/01/10 02:51:38;;;;;;;19.15;15.23;;;0.30;71.80;;;;;;6036623;23;20372;-78
2022/01/10 02:54:07;;;;;;;20.95;16.40;;;0.20;71.60;;;;;;6036672;23;20385;-78
2022/01/10 02:56:46;;;;;;;23.27;17.42;;;0.10;71.80;;;;;;6036017;23;20775;-77
2022/01/10 02:59:14;;;;;;;23.75;17.95;;;0.10;73.50;;;;;;6036795;23;20377;-78
2022/01/10 03:01:41;;;;;;;31.38;20.08;;;0.10;73.20;;;;;;6037159;23;20373;-79
2022/01/10 03:04:11;;;;;;;33.03;22.75;;;0.10;74.50;;;;;;6038255;23;20372;-78
2022/01/10 03:06:39;;;;;;;35.72;23.30;;;0.10;75.20;;;;;;6035876;23;20838;-79
2022/01/10 03:09:06;;;;;;;28.87;20.77;;;0.10;74.80;;;;;;6037930;23;20385;-77
2022/01/10 03:11:34;;;;;;;24.00;17.92;;;0.00;74.60;;;;;;6035348;23;20861;-78
2022/01/10 03:14:01;;;;;;;24.90;18.58;;;-0.30;74.60;;;;;;6036565;23;20491;-78
2022/01/10 03:16:29;;;;;;;25.42;19.10;;;-0.30;74.90;;;;;;6037435;23;20389;-78
2022/01/10 03:18:57;;;;;;;26.38;19.52;;;-0.40;75.30;;;;;;6037396;23;20448;-78
2022/01/10 03:21:24;;;;;;;24.02;18.38;;;-0.40;75.10;;;;;;6035353;23;20381;-76
2022/01/10 03:23:52;;;;;;;26.08;19.67;;;-0.40;74.90;;;;;;6037941;23;20373;-79
2022/01/10 03:26:20;;;;;;;26.90;19.27;;;-0.50;74.50;;;;;;6035594;23;20847;-78
2022/01/10 03:28:47;;;;;;;26.17;19.17;;;-0.50;74.50;;;;;;6036651;23;20416;-77
2022/01/10 03:31:14;;;;;;;29.00;20.67;;;-0.50;74.60;;;;;;6036237;23;20381;-77
2022/01/10 03:33:41;;;;;;;27.73;20.27;;;-0.60;75.00;;;;;;6036763;23;20786;-79
2022/01/10 03:36:08;;;;;;;24.15;18.33;;;-0.60;75.10;;;;;;6036250;23;20377;-77
2022/01/10 03:38:35;;;;;;;23.10;17.75;;;-0.70;75.10;;;;;;6034980;23;20388;-78
2022/01/10 03:41:02;;;;;;;26.52;19.17;;;-0.80;74.60;;;;;;6038144;23;20385;-79
2022/01/10 03:43:29;;;;;;;33.13;23.85;;;-0.90;75.60;;;;;;6036741;23;20385;-78
2022/01/10 03:45:57;;;;;;;30.97;23.27;;;-0.80;79.00;;;;;;6035902;23;20702;-78
2022/01/10 03:48:24;;;;;;;32.42;25.17;;;-0.80;78.50;;;;;;6037247;23;20445;-78
2022/01/10 03:50:51;;;;;;;31.80;23.70;;;-0.80;78.60;;;;;;6036105;23;20377;-79
2022/01/10 03:53:18;;;;;;;27.95;21.25;;;-0.80;78.20;;;;;;6035914;23;20393;-78
2022/01/10 03:55:45;;;;;;;26.90;20.53;;;-0.80;77.30;;;;;;6053795;23;20378;-78
2022/01/10 03:58:11;;;;;;;26.60;20.15;;;-0.90;77.40;;;;;;6040579;23;20391;-78
2022/01/10 04:00:38;;;;;;;26.70;21.13;;;-1.00;77.10;;;;;;6039977;23;20392;-79
2022/01/10 04:03:07;;;;;;;27.02;19.65;;;-1.00;76.90;;;;;;6041324;23;20410;-79
2022/01/10 04:05:34;;;;;;;25.23;18.55;;;-1.20;76.40;;;;;;6039801;23;20391;-77
2022/01/10 04:08:02;;;;;;;25.80;19.60;;;-1.30;77.70;;;;;;6041603;23;20398;-77
2022/01/10 04:10:29;;;;;;;27.23;19.10;;;-1.40;77.90;;;;;;6064488;23;20442;-79
2022/01/10 04:12:56;;;;;;;25.52;18.25;;;-1.60;78.90;;;;;;6040941;23;20394;-79
2022/01/10 04:15:23;;;;;;;23.73;18.55;;;-1.70;78.90;;;;;;6040164;23;20383;-78
2022/01/10 04:17:55;;;;;;;24.52;18.27;;;-1.60;78.80;;;;;;6040512;23;20435;-77
2022/01/10 04:20:27;;;;;;;25.10;19.38;;;-1.60;79.10;;;;;;6040422;23;20387;-78
2022/01/10 04:22:55;;;;;;;24.70;18.25;;;-1.70;79.00;;;;;;6041193;23;20386;-77
2022/01/10 04:25:22;;;;;;;23.80;18.75;;;-1.60;79.70;;;;;;6039996;23;20379;-78
2022/01/10 04:27:49;;;;;;;27.73;20.20;;;-1.60;81.60;;;;;;6065498;23;20379;-78
2022/01/10 04:30:16;;;;;;;27.15;21.52;;;-1.50;83.10;;;;;;6040656;23;20375;-77
2022/01/10 04:32:44;;;;;;;25.23;19.95;;;-1.50;83.20;;;;;;6039155;23;20375;-78
2022/01/10 04:35:11;;;;;;;28.60;21.60;;;-1.40;82.50;;;;;;6040674;23;20383;-77
2022/01/10 04:37:39;;;;;;;28.45;21.30;;;-1.40;82.40;;;;;;6039725;23;20927;-79
2022/01/10 04:40:09;;;;;;;27.88;21.05;;;-1.40;83.00;;;;;;6040958;23;20379;-77
2022/01/10 04:42:36;;;;;;;31.63;24.58;;;-1.40;82.70;;;;;;6038788;23;20383;-77
2022/01/10 04:45:04;;;;;;;32.72;24.80;;;-1.20;84.70;;;;;;6041010;23;20852;-78
2022/01/10 04:47:31;;;;;;;33.45;24.98;;;-1.10;84.50;;;;;;6040367;23;20732;-77
2022/01/10 04:52:38;;;;;;;34.80;26.83;;;-1.10;83.10;;;;;;6065516;23;20418;-79
2022/01/10 04:55:06;;;;;;;35.67;27.58;;;-1.10;82.70;;;;;;6039504;23;20383;-78
2022/01/10 04:57:33;;;;;;;37.40;27.90;;;-1.10;83.40;;;;;;6040100;23;20450;-78
2022/01/10 05:00:00;;;;;;;35.05;27.45;;;-1.10;82.90;;;;;;6039777;23;20391;-78
2022/01/10 05:02:27;;;;;;;32.22;25.25;;;-1.10;82.80;;;;;;6065132;23;20383;-78
2022/01/10 05:04:54;;;;;;;35.43;25.13;;;-1.20;82.30;;;;;;6040568;23;20379;-78
2022/01/10 05:07:21;;;;;;;31.17;23.00;;;-1.30;82.20;;;;;;6006065;23;20417;-77
2022/01/10 05:09:48;;;;;;;31.67;23.38;;;-1.40;81.30;;;;;;6040298;23;20717;-77
2022/01/10 05:12:15;;;;;;;29.27;22.30;;;-1.50;81.20;;;;;;6040209;23;20391;-77
2022/01/10 05:14:42;;;;;;;27.93;21.97;;;-1.50;80.60;;;;;;6039259;23;20383;-78
2022/01/10 05:17:10;;;;;;;28.70;21.38;;;-1.50;83.10;;;;;;6040469;23;20856;-78
2022/01/10 05:19:37;;;;;;;27.70;20.60;;;-1.60;82.80;;;;;;6040585;23;20442;-78
2022/01/10 05:22:04;;;;;;;30.58;21.95;;;-1.60;81.90;;;;;;6039698;23;20382;-78
2022/01/10 05:24:31;;;;;;;31.98;23.30;;;-1.70;82.00;;;;;;6039769;23;20887;-77
2022/01/10 05:26:58;;;;;;;35.27;24.77;;;-1.70;83.50;;;;;;6063824;23;20382;-77
2022/01/10 05:29:25;;;;;;;34.20;25.50;;;-1.70;83.30;;;;;;6039876;23;20386;-79
2022/01/10 05:31:52;;;;;;;32.20;22.83;;;-1.70;83.10;;;;;;6039902;23;20465;-78
2022/01/10 05:34:19;;;;;;;29.98;22.30;;;-1.70;82.80;;;;;;6039104;23;20378;-77
2022/01/10 05:36:46;;;;;;;31.83;23.42;;;-1.70;82.70;;;;;;6065144;23;20375;-79
2022/01/10 05:39:13;;;;;;;37.47;26.80;;;-1.80;82.40;;;;;;6040351;23;20434;-77
2022/01/10 05:41:45;;;;;;;48.33;33.45;;;-1.80;82.90;;;;;;6039400;23;20713;-78
2022/01/10 05:44:12;;;;;;;44.53;30.98;;;-1.80;83.00;;;;;;6039731;23;20397;-79
2022/01/10 05:46:41;;;;;;;42.55;30.58;;;-1.80;82.70;;;;;;6065343;23;20954;-78
2022/01/10 05:49:14;;;;;;;42.47;30.90;;;-1.70;82.80;;;;;;6065213;23;20854;-78
2022/01/10 05:51:41;;;;;;;43.33;31.40;;;-1.70;82.20;;;;;;6040001;23;20383;-78
2022/01/10 05:54:08;;;;;;;37.38;28.65;;;-1.70;82.20;;;;;;6039317;23;20383;-79
2022/01/10 05:56:35;;;;;;;35.23;26.03;;;-1.80;83.10;;;;;;6040118;23;20754;-80
2022/01/10 05:59:03;;;;;;;32.35;23.33;;;-1.90;82.10;;;;;;6039818;23;20398;-77
2022/01/10 06:01:30;;;;;;;29.23;22.17;;;-2.00;81.60;;;;;;6023140;23;20973;-78
2022/01/10 06:03:57;;;;;;;30.90;23.70;;;-2.10;81.80;;;;;;6035029;23;20397;-77
2022/01/10 06:06:24;;;;;;;41.00;29.15;;;-2.10;83.60;;;;;;6032958;23;20441;-79
2022/01/10 06:08:51;;;;;;;47.00;32.97;;;-2.10;85.80;;;;;;6035092;23;20862;-78
2022/01/10 06:11:18;;;;;;;50.80;35.58;;;-1.90;87.40;;;;;;6034893;23;20385;-77
2022/01/10 06:13:45;;;;;;;50.33;35.13;;;-1.80;86.30;;;;;;6034804;23;20384;-78
2022/01/10 06:16:13;;;;;;;45.40;33.63;;;-1.80;85.80;;;;;;6034906;23;20442;-78
2022/01/10 06:18:40;;;;;;;49.60;36.83;;;-1.80;85.30;;;;;;6033525;23;20401;-78
2022/01/10 06:21:07;;;;;;;38.97;29.23;;;-1.80;85.50;;;;;;6035112;23;20755;-77
2022/01/10 06:23:34;;;;;;;36.60;28.40;;;-1.90;85.40;;;;;;6035363;23;20384;-78
2022/01/10 06:26:01;;;;;;;40.20;28.77;;;-2.00;85.50;;;;;;6036748;23;20388;-77
2022/01/10 06:28:28;;;;;;;38.90;28.43;;;-2.00;85.90;;;;;;6037584;23;20763;-77
2022/01/10 06:30:55;;;;;;;35.13;26.15;;;-2.00;85.30;;;;;;6036746;23;20460;-79
2022/01/10 06:33:22;;;;;;;34.43;25.13;;;-2.00;84.60;;;;;;6036855;23;20452;-77
2022/01/10 06:35:48;;;;;;;30.70;23.75;;;-2.10;83.80;;;;;;6037454;23;20399;-77
2022/01/10 06:38:15;;;;;;;32.53;24.63;;;-2.10;83.70;;;;;;6036569;23;20424;-78
2022/01/10 06:40:43;;;;;;;35.40;25.85;;;-2.10;83.50;;;;;;6035339;23;20407;-79
2022/01/10 06:43:10;;;;;;;35.15;24.05;;;-2.10;83.30;;;;;;6036938;23;20389;-77
2022/01/10 06:45:37;;;;;;;31.45;22.33;;;-2.20;84.00;;;;;;6035810;23;20392;-79
2022/01/10 06:48:05;;;;;;;29.85;22.70;;;-2.30;84.60;;;;;;6036587;23;20503;-77
2022/01/10 06:50:32;;;;;;;28.13;21.23;;;-2.40;84.30;;;;;;6037687;23;20389;-78
2022/01/10 06:53:00;;;;;;;31.63;23.13;;;-2.40;84.10;;;;;;6037080;23;20834;-78
2022/01/10 06:55:27;;;;;;;33.10;23.73;;;-2.40;85.50;;;;;;6038725;23;20381;-79
2022/01/10 06:57:54;;;;;;;31.73;23.47;;;-2.30;86.20;;;;;;6035305;23;20393;-78
2022/01/10 07:00:21;;;;;;;33.10;25.73;;;-2.30;85.50;;;;;;6037929;23;20417;-78
2022/01/10 07:02:48;;;;;;;37.47;28.43;;;-2.20;86.10;;;;;;6035859;23;20381;-77
2022/01/10 07:05:15;;;;;;;42.05;31.85;;;-2.20;85.50;;;;;;6037713;23;20389;-78
2022/01/10 07:07:42;;;;;;;43.08;30.98;;;-2.10;87.60;;;;;;6035692;23;20407;-79
2022/01/10 07:10:09;;;;;;;38.42;27.52;;;-2.00;87.10;;;;;;6036798;23;20436;-78
2022/01/10 07:12:36;;;;;;;38.63;29.15;;;-1.90;87.40;;;;;;6036732;23;20385;-78
2022/01/10 07:15:04;;;;;;;47.05;33.63;;;-1.90;87.60;;;;;;6035782;23;20452;-78
2022/01/10 07:17:32;;;;;;;49.60;35.30;;;-1.80;87.50;;;;;;6036409;23;20396;-77
2022/01/10 07:20:00;;;;;;;43.90;31.17;;;-1.80;86.90;;;;;;6035563;23;20387;-78
2022/01/10 07:22:27;;;;;;;38.90;28.10;;;-1.90;86.10;;;;;;6036569;23;20380;-77
2022/01/10 07:24:54;;;;;;;34.90;25.98;;;-2.20;85.50;;;;;;6035636;23;20718;-78
2022/01/10 07:27:21;;;;;;;35.42;25.50;;;-2.40;86.10;;;;;;6037230;23;20384;-78
2022/01/10 07:29:50;;;;;;;37.92;25.95;;;-2.40;86.50;;;;;;6035764;23;20878;-79
2022/01/10 07:32:18;;;;;;;32.97;24.48;;;-2.40;86.00;;;;;;6035930;23;20381;-78
2022/01/10 07:34:45;;;;;;;34.22;24.30;;;-2.60;86.40;;;;;;6036076;23;20392;-77
2022/01/10 07:37:12;;;;;;;34.47;24.85;;;-2.50;86.60;;;;;;6037756;23;20381;-79
2022/01/10 07:39:39;;;;;;;34.33;25.50;;;-2.50;86.30;;;;;;6036940;23;20450;-78
2022/01/10 07:42:07;;;;;;;39.20;27.88;;;-2.40;85.90;;;;;;6036153;23;20389;-77
2022/01/10 07:44:34;;;;;;;39.92;30.02;;;-2.40;85.90;;;;;;6037403;23;20437;-79
2022/01/10 07:47:01;;;;;;;45.45;31.95;;;-2.30;86.50;;;;;;6028125;23;20433;-79
2022/01/10 07:49:28;;;;;;;51.58;37.22;;;-2.30;86.60;;;;;;6036304;23;20381;-78
2022/01/10 07:51:57;;;;;;;49.55;35.88;;;-2.20;86.90;;;;;;6037816;23;20440;-79
2022/01/10 07:54:25;;;;;;;49.63;35.90;;;-2.00;87.70;;;;;;6037770;23;20373;-78
2022/01/10 07:56:53;;;;;;;53.38;37.65;;;-1.70;87.90;;;;;;6037824;23;20365;-78
2022/01/10 07:59:21;;;;;;;54.22;40.72;;;-1.00;86.60;;;;;;6037855;23;20397;-79
2022/01/10 08:01:49;;;;;;;59.13;44.65;;;-0.50;83.60;;;;;;6037993;23;20873;-79
2022/01/10 08:04:17;;;;;;;65.60;47.65;;;-0.10;82.10;;;;;;6037873;23;20375;-79
2022/01/10 08:06:44;;;;;;;48.70;37.33;;;0.20;81.10;;;;;;6014833;23;20850;-79
2022/01/10 08:09:11;;;;;;;47.40;36.33;;;0.30;79.40;;;;;;6037296;23;20436;-77
2022/01/10 08:11:38;;;;;;;93.70;75.55;;;0.30;78.90;;;;;;6037420;23;20430;-78
2022/01/10 08:14:05;;;;;;;58.38;44.55;;;0.30;79.10;;;;;;6037080;23;20877;-79
2022/01/10 08:16:33;;;;;;;55.17;40.55;;;0.40;79.40;;;;;;6038636;23;20407;-77
2022/01/10 08:19:00;;;;;;;74.07;53.97;;;0.50;79.10;;;;;;6038554;23;20940;-77
2022/01/10 08:21:27;;;;;;;57.78;38.65;;;0.60;79.10;;;;;;6037574;23;20380;-80
2022/01/10 08:23:54;;;;;;;57.92;43.63;;;0.70;78.90;;;;;;6014548;23;20373;-77
2022/01/10 08:26:22;;;;;;;57.03;42.60;;;0.70;79.10;;;;;;6037584;23;20416;-79
2022/01/10 08:28:49;;;;;;;62.47;42.83;;;0.70;79.20;;;;;;6037749;23;20428;-79
2022/01/10 08:31:16;;;;;;;54.08;39.35;;;0.80;79.50;;;;;;6014559;23;20397;-79
2022/01/10 08:33:45;;;;;;;65.10;45.65;;;0.90;79.40;;;;;;6036673;23;20372;-79
2022/01/10 08:36:13;;;;;;;52.13;38.05;;;1.10;79.00;;;;;;6038578;23;20432;-79
2022/01/10 08:38:40;;;;;;;59.78;45.45;;;1.20;77.90;;;;;;6037284;23;20397;-79
2022/01/10 08:41:07;;;;;;;50.35;37.15;;;1.20;77.90;;;;;;6037371;23;20373;-79
2022/01/10 08:43:34;;;;;;;47.95;35.58;;;1.40;77.70;;;;;;6037105;23;20384;-79
2022/01/10 08:46:02;;;;;;;39.55;28.63;;;1.50;77.00;;;;;;6036872;23;20383;-79
2022/01/10 08:48:42;;;;;;;35.05;27.13;;;1.70;75.90;;;;;;6037527;23;20396;-78
2022/01/10 08:51:10;;;;;;;33.25;25.20;;;2.10;73.70;;;;;;6037372;23;20900;-81
2022/01/10 08:53:38;;;;;;;39.58;27.83;;;2.40;72.90;;;;;;6037482;23;20388;-79
2022/01/10 08:56:05;;;;;;;41.92;30.15;;;2.70;72.50;;;;;;6038204;23;20388;-77
2022/01/10 08:58:32;;;;;;;43.17;31.65;;;2.90;72.00;;;;;;6036786;23;20401;-77
2022/01/10 09:01:05;;;;;;;48.30;34.70;;;3.00;71.70;;;;;;6037030;23;20839;-79
2022/01/10 09:03:35;;;;;;;46.85;34.13;;;2.90;71.80;;;;;;6037302;23;20397;-79
2022/01/10 09:06:02;;;;;;;44.70;33.05;;;2.90;72.50;;;;;;6036892;23;20380;-79
2022/01/10 09:08:33;;;;;;;43.33;32.50;;;3.00;72.00;;;;;;6037135;23;20393;-77
2022/01/10 09:11:01;;;;;;;33.23;25.07;;;3.10;72.10;;;;;;6037206;23;20445;-78
2022/01/10 09:13:28;;;;;;;31.45;24.02;;;3.30;70.70;;;;;;6037244;23;20854;-79
2022/01/10 09:15:55;;;;;;;24.23;17.52;;;3.60;68.90;;;;;;6037026;23;20848;-79
2022/01/10 09:18:34;;;;;;;9.15;5.70;;;4.10;65.40;;;;;;5131809;27;20813;-78
2022/01/10 09:21:01;;;;;;;35.70;28.13;;;4.50;61.00;;;;;;5083839;28;20469;-78
2022/01/10 09:23:28;;;;;;;40.60;31.02;;;4.50;64.40;;;;;;5075632;28;20413;-79
2022/01/10 09:25:55;;;;;;;41.63;32.95;;;4.40;66.50;;;;;;5096875;28;20392;-76
2022/01/10 09:28:22;;;;;;;59.83;43.17;;;4.30;67.20;;;;;;5107677;28;20416;-78
2022/01/10 09:30:49;;;;;;;39.60;31.85;;;4.30;67.20;;;;;;5090929;28;20400;-78
2022/01/10 09:33:16;;;;;;;38.85;31.73;;;4.20;67.90;;;;;;5107481;28;20428;-78
2022/01/10 09:35:43;;;;;;;37.87;29.87;;;4.20;68.00;;;;;;5088092;28;20504;-76
2022/01/10 09:38:10;;;;;;;40.83;28.67;;;4.30;67.80;;;;;;5101569;28;20957;-79
2022/01/10 09:40:38;;;;;;;36.73;28.63;;;4.40;67.10;;;;;;5076566;28;20827;-78
2022/01/10 09:43:18;;;;;;;41.58;32.13;;;4.50;66.80;;;;;;5073337;28;20410;-78
2022/01/10 09:45:46;;;;;;;45.00;33.08;;;4.60;65.60;;;;;;5085168;28;20378;-79
2022/01/10 09:48:13;;;;;;;43.75;33.00;;;4.70;66.40;;;;;;5072384;28;20429;-79
2022/01/10 09:50:41;;;;;;;33.50;24.95;;;4.70;66.00;;;;;;5078272;28;20384;-78
2022/01/10 09:53:09;;;;;;;45.28;33.50;;;4.80;63.30;;;;;;5088092;28;20940;-78
2022/01/10 09:55:36;;;;;;;43.30;31.05;;;4.90;64.30;;;;;;5076971;28;20394;-79
2022/01/10 09:58:03;;;;;;;38.33;30.52;;;4.80;63.90;;;;;;5090851;28;20822;-78
2022/01/10 10:00:31;;;;;;;38.83;28.95;;;4.90;64.50;;;;;;5090730;28;20422;-78
2022/01/10 10:02:59;;;;;;;35.78;25.52;;;4.90;64.20;;;;;;5091431;28;20761;-76
2022/01/10 10:05:29;;;;;;;25.23;19.83;;;5.10;62.30;;;;;;5070078;28;20742;-79
2022/01/10 10:07:59;;;;;;;26.25;21.65;;;5.30;60.10;;;;;;5091357;28;20477;-78
2022/01/10 10:10:29;;;;;;;25.85;19.58;;;5.50;61.90;;;;;;5090700;28;20901;-79
2022/01/10 10:12:56;;;;;;;16.80;12.95;;;5.50;63.00;;;;;;5071443;28;20468;-79
2022/01/10 10:15:28;;;;;;;17.05;12.18;;;5.60;60.20;;;;;;5083641;28;20405;-80
2022/01/10 10:17:55;;;;;;;16.00;13.38;;;5.70;57.50;;;;;;5090430;28;20430;-79
2022/01/10 10:20:23;;;;;;;15.17;10.63;;;5.80;58.20;;;;;;5090676;28;20461;-76
2022/01/10 10:23:14;;;;;;;11.32;8.95;;;6.00;58.20;;;;;;5093587;28;20395;-80
2022/01/10 10:25:54;;;;;;;5.97;4.63;;;6.30;55.80;;;;;;5081761;28;20909;-80
2022/01/10 10:28:22;;;;;;;0.70;0.20;;;6.70;51.50;;;;;;5082509;28;20426;-79
2022/01/10 10:30:57;;;;;;;0.70;0.30;;;7.50;41.00;;;;;;5069514;28;20399;-78
2022/01/10 10:33:26;;;;;;;0.50;0.25;;;8.10;39.20;;;;;;5071580;28;20476;-79
2022/01/10 10:36:07;;;;;;;1.30;0.30;;;8.60;38.40;;;;;;5075948;28;20401;-80
2022/01/10 10:38:35;;;;;;;0.60;0.20;;;9.00;36.50;;;;;;5077364;28;20900;-79
2022/01/10 10:41:05;;;;;;;2.03;0.30;;;9.40;34.70;;;;;;5075574;28;20389;-79
2022/01/10 10:43:36;;;;;;;0.30;0.10;;;9.70;33.40;;;;;;5077702;28;20401;-80
2022/01/10 10:46:11;;;;;;;0.90;0.20;;;9.80;32.90;;;;;;5092018;28;20417;-77
2022/01/10 10:48:41;;;;;;;0.82;0.47;;;10.00;31.70;;;;;;5068584;28;20493;-80
2022/01/10 10:51:07;;;;;;;1.02;0.30;;;10.20;31.50;;;;;;5070333;28;20458;-79
2022/01/10 10:53:35;;;;;;;0.40;0.10;;;10.30;31.20;;;;;;5080045;28;20397;-80
2022/01/10 10:56:04;;;;;;;0.20;0.10;;;10.50;29.60;;;;;;5077229;28;20389;-79
2022/01/10 10:58:39;;;;;;;0.32;0.20;;;10.60;30.10;;;;;;5077284;28;20429;-79
2022/01/10 11:01:07;;;;;;;1.33;0.20;;;10.60;30.20;;;;;;5076408;28;20400;-77
2022/01/10 11:03:34;;;;;;;0.33;0.13;;;10.80;29.80;;;;;;5076050;28;20825;-79
2022/01/10 11:06:04;;;;;;;0.28;0.20;;;10.90;28.80;;;;;;5076742;28;20950;-78
2022/01/10 11:08:32;;;;;;;0.73;0.20;;;11.00;29.30;;;;;;5063368;28;20422;-76
2022/01/10 11:11:00;;;;;;;0.30;0.15;;;11.10;29.00;;;;;;5092830;28;20401;-79
2022/01/10 11:13:31;;;;;;;0.28;0.05;;;11.30;27.60;;;;;;5093081;28;20396;-78
2022/01/10 11:15:59;;;;;;;0.22;0.10;;;11.40;27.00;;;;;;5075600;28;20397;-76
2022/01/10 11:18:26;;;;;;;;;;;11.40;27.20;;;;;;5077525;28;20060;-78
2022/01/10 11:20:57;;;;;;;;;;;11.50;26.90;;;;;;5076896;28;20333;-76
2022/01/10 11:23:40;;;;;;;;;;;11.50;27.40;;;;;;5065753;28;20019;-79
2022/01/10 11:26:07;;;;;;;;;;;11.50;27.00;;;;;;5081010;28;20364;-79
2022/01/10 11:28:38;;;;;;;;;;;11.60;27.40;;;;;;5095161;28;19938;-76
2022/01/10 11:31:07;;;;;;;;;;;11.60;26.10;;;;;;5076897;28;19929;-79
2022/01/10 11:33:36;;;;;;;;;;;11.80;25.70;;;;;;5065751;28;20363;-79
2022/01/10 11:36:05;;;;;;;;;;;11.80;26.40;;;;;;5078215;28;19920;-80
2022/01/10 11:38:35;;;;;;;;;;;11.90;26.20;;;;;;5074613;28;19927;-79
2022/01/10 11:41:04;;;;;;;;;;;11.90;25.80;;;;;;5069537;28;19928;-80
2022/01/10 11:44:06;;;;;;;;;;;12.00;26.50;;;;;;5076226;28;20064;-80
2022/01/10 11:46:37;;;;;;;;;;;12.00;25.80;;;;;;5076860;28;20250;-79
2022/01/10 11:49:15;;;;;;;;;;;12.10;26.00;;;;;;5096777;28;20406;-79
2022/01/10 11:51:44;;;;;;;;;;;12.10;25.50;;;;;;5077803;28;19920;-79
2022/01/10 11:54:18;;;;;;;;;;;12.30;24.90;;;;;;5081401;28;19960;-80
2022/01/10 11:56:46;;;;;;;;;;;12.30;25.20;;;;;;5066614;28;19946;-76
2022/01/10 11:59:17;;;;;;;;;;;12.40;25.40;;;;;;5076373;28;19920;-79
2022/01/10 12:01:52;;;;;;;;;;;12.50;24.40;;;;;;5077044;28;19919;-79
2022/01/10 12:04:20;;;;;;;;;;;12.40;24.70;;;;;;5077480;28;19928;-80
2022/01/10 12:06:48;;;;;;;;;;;12.50;24.30;;;;;;5076690;28;19973;-79
2022/01/10 12:09:15;;;;;;;;;;;12.50;25.30;;;;;;5077925;28;19924;-77
2022/01/10 12:11:44;;;;;;;;;;;12.60;24.80;;;;;;5074875;28;19963;-78
2022/01/10 12:14:11;;;;;;;;;;;12.60;24.60;;;;;;5063108;28;19943;-79
2022/01/10 12:16:38;;;;;;;;;;;12.70;24.30;;;;;;5077671;28;19969;-79
2022/01/10 12:19:06;;;;;;;;;;;12.70;24.40;;;;;;5076388;28;20030;-77
2022/01/10 12:21:33;;;;;;;;;;;12.80;24.40;;;;;;5086324;28;19924;-79
2022/01/10 12:24:00;;;;;;;;;;;12.90;24.30;;;;;;5076879;28;20482;-79
2022/01/10 12:26:27;;;;;;;;;;;13.00;23.50;;;;;;5070767;28;19919;-76
2022/01/10 12:28:56;;;;;;;;;;;13.10;22.90;;;;;;5078671;28;19927;-79
2022/01/10 12:31:24;;;;;;;;;;;13.10;23.30;;;;;;5093705;28;20261;-80
2022/01/10 12:33:52;;;;;;;;;;;13.10;23.80;;;;;;5093517;28;19928;-77
2022/01/10 12:36:20;;;;;;;;;;;13.10;23.90;;;;;;5062025;28;19969;-76
2022/01/10 12:38:48;;;;;;;;;;;13.20;23.50;;;;;;5077013;28;19920;-79
2022/01/10 12:41:15;;;;;;;;;;;13.20;24.10;;;;;;5076730;28;19924;-79
2022/01/10 12:43:41;;;;;;;;;;;13.40;23.80;;;;;;5075638;28;20010;-80
2022/01/10 12:46:08;;;;;;;;;;;13.40;23.30;;;;;;5094152;28;19977;-80
2022/01/10 12:48:38;;;;;;;;;;;13.40;23.50;;;;;;5075664;28;19919;-80
2022/01/10 12:51:05;;;;;;;;;;;13.40;23.40;;;;;;5092302;28;19927;-79
2022/01/10 12:53:52;;;;;;;;;;;13.50;23.50;;;;;;5089449;28;19920;-77
2022/01/10 12:56:21;;;;;;;;;;;13.60;22.90;;;;;;5072960;28;19969;-77
2022/01/10 12:58:49;;;;;;;;;;;13.50;23.20;;;;;;5075898;28;19924;-81
2022/01/10 13:01:20;;;;;;;;;;;13.50;23.90;;;;;;5068136;28;19969;-77
2022/01/10 13:03:55;;;;;;;;;;;13.30;25.90;;;;;;5070459;28;19928;-77
2022/01/10 13:06:22;;;;;;;;;;;13.20;27.90;;;;;;5090140;28;19928;-78